sensor_id;sensor_type;location;lat;lon;timestamp;P1;durP1;ratioP1;P2;durP2;ratioP2
63016;SDS011;50274;45.640;11.756;2024-01-25T00:01:14;70.90;;;43.47;;
63016;SDS011;50274;45.640;11.756;2024-01-25T00:03:40;72.57;;;42.40;;
63016;SDS011;50274;45.640;11.756;2024-01-25T00:06:06;70.38;;;42.70;;
63016;SDS011;50274;45.640;11.756;2024-01-25T00:08:33;67.18;;;39.25;;
63016;SDS011;50274;45.640;11.756;2024-01-25T00:11:00;65.72;;;39.75;;
63016;SDS011;50274;45.640;11.756;2024-01-25T00:13:29;67.77;;;40.70;;
63016;SDS011;50274;45.640;11.756;2024-01-25T00:15:55;67.00;;;40.95;;
63016;SDS011;50274;45.640;11.756;2024-01-25T00:18:21;72.85;;;44.53;;
63016;SDS011;50274;45.640;11.756;2024-01-25T00:20:47;70.35;;;43.28;;
63016;SDS011;50274;45.640;11.756;2024-01-25T00:23:13;73.83;;;41.10;;
63016;SDS011;50274;45.640;11.756;2024-01-25T00:25:39;83.32;;;44.60;;
63016;SDS011;50274;45.640;11.756;2024-01-25T00:28:04;85.13;;;44.30;;
63016;SDS011;50274;45.640;11.756;2024-01-25T00:30:30;102.20;;;50.50;;
63016;SDS011;50274;45.640;11.756;2024-01-25T00:32:56;94.63;;;46.53;;
63016;SDS011;50274;45.640;11.756;2024-01-25T00:35:23;84.95;;;43.42;;
63016;SDS011;50274;45.640;11.756;2024-01-25T00:37:49;83.60;;;41.63;;
63016;SDS011;50274;45.640;11.756;2024-01-25T00:40:16;79.43;;;41.65;;
63016;SDS011;50274;45.640;11.756;2024-01-25T00:42:43;80.03;;;43.42;;
63016;SDS011;50274;45.640;11.756;2024-01-25T00:45:14;77.68;;;41.03;;
63016;SDS011;50274;45.640;11.756;2024-01-25T00:47:40;87.35;;;46.53;;
63016;SDS011;50274;45.640;11.756;2024-01-25T00:50:06;87.07;;;42.57;;
63016;SDS011;50274;45.640;11.756;2024-01-25T00:52:32;85.38;;;43.17;;
63016;SDS011;50274;45.640;11.756;2024-01-25T00:54:59;75.35;;;41.80;;
63016;SDS011;50274;45.640;11.756;2024-01-25T00:57:25;73.55;;;40.80;;
63016;SDS011;50274;45.640;11.756;2024-01-25T00:59:51;79.35;;;41.95;;
63016;SDS011;50274;45.640;11.756;2024-01-25T01:02:17;71.43;;;38.80;;
63016;SDS011;50274;45.640;11.756;2024-01-25T01:04:46;71.97;;;37.80;;
63016;SDS011;50274;45.640;11.756;2024-01-25T01:07:13;71.07;;;39.60;;
63016;SDS011;50274;45.640;11.756;2024-01-25T01:09:39;74.35;;;40.78;;
63016;SDS011;50274;45.640;11.756;2024-01-25T01:12:05;69.03;;;38.20;;
63016;SDS011;50274;45.640;11.756;2024-01-25T01:14:32;79.85;;;40.30;;
63016;SDS011;50274;45.640;11.756;2024-01-25T01:16:58;70.10;;;38.60;;
63016;SDS011;50274;45.640;11.756;2024-01-25T01:19:24;76.43;;;39.03;;
63016;SDS011;50274;45.640;11.756;2024-01-25T01:21:49;61.90;;;37.27;;
63016;SDS011;50274;45.640;11.756;2024-01-25T01:24:15;70.22;;;37.75;;
63016;SDS011;50274;45.640;11.756;2024-01-25T01:26:41;67.00;;;36.72;;
63016;SDS011;50274;45.640;11.756;2024-01-25T01:29:07;61.90;;;35.90;;
63016;SDS011;50274;45.640;11.756;2024-01-25T01:31:33;73.18;;;40.65;;
63016;SDS011;50274;45.640;11.756;2024-01-25T01:33:59;66.05;;;37.60;;
63016;SDS011;50274;45.640;11.756;2024-01-25T01:36:25;62.70;;;34.88;;
63016;SDS011;50274;45.640;11.756;2024-01-25T01:38:51;62.53;;;35.38;;
63016;SDS011;50274;45.640;11.756;2024-01-25T01:41:17;65.05;;;37.58;;
63016;SDS011;50274;45.640;11.756;2024-01-25T01:43:43;57.70;;;33.92;;
63016;SDS011;50274;45.640;11.756;2024-01-25T01:46:31;62.30;;;36.40;;
63016;SDS011;50274;45.640;11.756;2024-01-25T01:49:05;67.63;;;37.67;;
63016;SDS011;50274;45.640;11.756;2024-01-25T01:51:34;66.07;;;35.88;;
63016;SDS011;50274;45.640;11.756;2024-01-25T01:54:00;57.58;;;33.85;;
63016;SDS011;50274;45.640;11.756;2024-01-25T01:56:30;58.70;;;32.77;;
63016;SDS011;50274;45.640;11.756;2024-01-25T01:58:57;52.88;;;33.45;;
63016;SDS011;50274;45.640;11.756;2024-01-25T02:01:25;52.78;;;32.00;;
63016;SDS011;50274;45.640;11.756;2024-01-25T02:03:51;55.72;;;33.42;;
63016;SDS011;50274;45.640;11.756;2024-01-25T02:06:17;47.35;;;30.90;;
63016;SDS011;50274;45.640;11.756;2024-01-25T02:08:43;49.92;;;32.22;;
63016;SDS011;50274;45.640;11.756;2024-01-25T02:11:12;50.17;;;31.77;;
63016;SDS011;50274;45.640;11.756;2024-01-25T02:13:38;58.25;;;35.97;;
63016;SDS011;50274;45.640;11.756;2024-01-25T02:16:04;57.60;;;35.00;;
63016;SDS011;50274;45.640;11.756;2024-01-25T02:18:32;49.83;;;31.63;;
63016;SDS011;50274;45.640;11.756;2024-01-25T02:20:59;57.35;;;32.42;;
63016;SDS011;50274;45.640;11.756;2024-01-25T02:23:25;53.10;;;31.40;;
63016;SDS011;50274;45.640;11.756;2024-01-25T02:25:50;47.97;;;30.52;;
63016;SDS011;50274;45.640;11.756;2024-01-25T02:28:16;45.27;;;29.33;;
63016;SDS011;50274;45.640;11.756;2024-01-25T02:30:42;48.60;;;30.27;;
63016;SDS011;50274;45.640;11.756;2024-01-25T02:33:08;48.47;;;30.00;;
63016;SDS011;50274;45.640;11.756;2024-01-25T02:35:34;52.23;;;30.43;;
63016;SDS011;50274;45.640;11.756;2024-01-25T02:38:00;45.80;;;28.63;;
63016;SDS011;50274;45.640;11.756;2024-01-25T02:40:26;44.63;;;28.40;;
63016;SDS011;50274;45.640;11.756;2024-01-25T02:42:52;45.30;;;26.77;;
63016;SDS011;50274;45.640;11.756;2024-01-25T02:45:18;47.22;;;28.02;;
63016;SDS011;50274;45.640;11.756;2024-01-25T02:47:43;43.83;;;26.23;;
63016;SDS011;50274;45.640;11.756;2024-01-25T02:50:09;43.83;;;26.63;;
63016;SDS011;50274;45.640;11.756;2024-01-25T02:52:35;45.20;;;26.13;;
63016;SDS011;50274;45.640;11.756;2024-01-25T02:55:01;45.03;;;26.23;;
63016;SDS011;50274;45.640;11.756;2024-01-25T02:57:27;42.92;;;26.95;;
63016;SDS011;50274;45.640;11.756;2024-01-25T02:59:53;41.65;;;24.85;;
63016;SDS011;50274;45.640;11.756;2024-01-25T03:02:18;44.17;;;25.90;;
63016;SDS011;50274;45.640;11.756;2024-01-25T03:04:45;48.22;;;26.15;;
63016;SDS011;50274;45.640;11.756;2024-01-25T03:07:11;46.05;;;26.63;;
63016;SDS011;50274;45.640;11.756;2024-01-25T03:09:37;43.30;;;25.75;;
63016;SDS011;50274;45.640;11.756;2024-01-25T03:12:03;45.17;;;26.30;;
63016;SDS011;50274;45.640;11.756;2024-01-25T03:14:29;37.90;;;23.60;;
63016;SDS011;50274;45.640;11.756;2024-01-25T03:16:54;39.03;;;23.60;;
63016;SDS011;50274;45.640;11.756;2024-01-25T03:19:22;46.00;;;26.00;;
63016;SDS011;50274;45.640;11.756;2024-01-25T03:21:52;42.95;;;25.17;;
63016;SDS011;50274;45.640;11.756;2024-01-25T03:24:19;41.17;;;24.92;;
63016;SDS011;50274;45.640;11.756;2024-01-25T03:26:45;43.55;;;24.27;;
63016;SDS011;50274;45.640;11.756;2024-01-25T03:29:13;38.90;;;23.48;;
63016;SDS011;50274;45.640;11.756;2024-01-25T03:31:39;41.07;;;25.50;;
63016;SDS011;50274;45.640;11.756;2024-01-25T03:34:05;41.38;;;24.35;;
63016;SDS011;50274;45.640;11.756;2024-01-25T03:36:31;36.77;;;22.50;;
63016;SDS011;50274;45.640;11.756;2024-01-25T03:38:57;36.92;;;23.65;;
63016;SDS011;50274;45.640;11.756;2024-01-25T03:41:23;41.55;;;24.70;;
63016;SDS011;50274;45.640;11.756;2024-01-25T03:43:49;43.53;;;24.88;;
63016;SDS011;50274;45.640;11.756;2024-01-25T03:46:15;44.20;;;24.20;;
63016;SDS011;50274;45.640;11.756;2024-01-25T03:48:41;44.45;;;26.30;;
63016;SDS011;50274;45.640;11.756;2024-01-25T03:51:07;41.67;;;24.63;;
63016;SDS011;50274;45.640;11.756;2024-01-25T03:53:33;36.35;;;22.52;;
63016;SDS011;50274;45.640;11.756;2024-01-25T03:55:59;41.77;;;23.90;;
63016;SDS011;50274;45.640;11.756;2024-01-25T03:58:25;39.35;;;23.42;;
63016;SDS011;50274;45.640;11.756;2024-01-25T04:00:51;37.23;;;23.20;;
63016;SDS011;50274;45.640;11.756;2024-01-25T04:03:17;36.05;;;22.67;;
63016;SDS011;50274;45.640;11.756;2024-01-25T04:05:43;41.17;;;24.45;;
63016;SDS011;50274;45.640;11.756;2024-01-25T04:08:08;42.67;;;24.03;;
63016;SDS011;50274;45.640;11.756;2024-01-25T04:10:35;37.88;;;24.23;;
63016;SDS011;50274;45.640;11.756;2024-01-25T04:13:01;42.08;;;26.95;;
63016;SDS011;50274;45.640;11.756;2024-01-25T04:15:29;44.60;;;27.90;;
63016;SDS011;50274;45.640;11.756;2024-01-25T04:17:55;40.87;;;24.83;;
63016;SDS011;50274;45.640;11.756;2024-01-25T04:20:23;42.13;;;24.73;;
63016;SDS011;50274;45.640;11.756;2024-01-25T04:22:49;39.53;;;24.20;;
63016;SDS011;50274;45.640;11.756;2024-01-25T04:25:15;35.55;;;21.95;;
63016;SDS011;50274;45.640;11.756;2024-01-25T04:27:41;36.40;;;21.40;;
63016;SDS011;50274;45.640;11.756;2024-01-25T04:30:07;33.50;;;19.85;;
63016;SDS011;50274;45.640;11.756;2024-01-25T04:32:33;33.67;;;20.38;;
63016;SDS011;50274;45.640;11.756;2024-01-25T04:34:59;33.33;;;19.95;;
63016;SDS011;50274;45.640;11.756;2024-01-25T04:37:25;30.80;;;18.77;;
63016;SDS011;50274;45.640;11.756;2024-01-25T04:39:51;27.98;;;17.75;;
63016;SDS011;50274;45.640;11.756;2024-01-25T04:42:17;29.08;;;18.17;;
63016;SDS011;50274;45.640;11.756;2024-01-25T04:44:43;32.88;;;17.85;;
63016;SDS011;50274;45.640;11.756;2024-01-25T04:47:09;30.42;;;18.42;;
63016;SDS011;50274;45.640;11.756;2024-01-25T04:49:35;26.98;;;17.20;;
63016;SDS011;50274;45.640;11.756;2024-01-25T04:52:01;32.75;;;17.45;;
63016;SDS011;50274;45.640;11.756;2024-01-25T04:54:27;27.02;;;16.20;;
63016;SDS011;50274;45.640;11.756;2024-01-25T04:56:53;24.33;;;15.95;;
63016;SDS011;50274;45.640;11.756;2024-01-25T04:59:20;28.88;;;17.25;;
63016;SDS011;50274;45.640;11.756;2024-01-25T05:01:45;26.45;;;15.88;;
63016;SDS011;50274;45.640;11.756;2024-01-25T05:04:11;27.63;;;17.07;;
63016;SDS011;50274;45.640;11.756;2024-01-25T05:06:37;27.30;;;16.75;;
63016;SDS011;50274;45.640;11.756;2024-01-25T05:09:03;27.08;;;15.55;;
63016;SDS011;50274;45.640;11.756;2024-01-25T05:11:29;29.70;;;16.63;;
63016;SDS011;50274;45.640;11.756;2024-01-25T05:13:55;23.40;;;14.93;;
63016;SDS011;50274;45.640;11.756;2024-01-25T05:16:20;25.98;;;16.30;;
63016;SDS011;50274;45.640;11.756;2024-01-25T05:18:46;27.53;;;15.93;;
63016;SDS011;50274;45.640;11.756;2024-01-25T05:21:12;26.08;;;15.05;;
63016;SDS011;50274;45.640;11.756;2024-01-25T05:23:38;23.67;;;13.13;;
63016;SDS011;50274;45.640;11.756;2024-01-25T05:26:05;27.60;;;14.90;;
63016;SDS011;50274;45.640;11.756;2024-01-25T05:28:31;28.80;;;16.67;;
63016;SDS011;50274;45.640;11.756;2024-01-25T05:30:57;24.63;;;13.73;;
63016;SDS011;50274;45.640;11.756;2024-01-25T05:33:23;26.03;;;15.20;;
63016;SDS011;50274;45.640;11.756;2024-01-25T05:35:48;23.08;;;14.77;;
63016;SDS011;50274;45.640;11.756;2024-01-25T05:38:15;22.23;;;13.75;;
63016;SDS011;50274;45.640;11.756;2024-01-25T05:40:41;28.37;;;15.63;;
63016;SDS011;50274;45.640;11.756;2024-01-25T05:43:07;29.65;;;16.38;;
63016;SDS011;50274;45.640;11.756;2024-01-25T05:45:33;29.33;;;17.60;;
63016;SDS011;50274;45.640;11.756;2024-01-25T05:47:59;30.47;;;18.07;;
63016;SDS011;50274;45.640;11.756;2024-01-25T05:50:28;30.20;;;17.38;;
63016;SDS011;50274;45.640;11.756;2024-01-25T05:52:53;30.13;;;17.05;;
63016;SDS011;50274;45.640;11.756;2024-01-25T05:55:19;28.87;;;16.93;;
63016;SDS011;50274;45.640;11.756;2024-01-25T05:57:45;27.45;;;15.75;;
63016;SDS011;50274;45.640;11.756;2024-01-25T06:00:11;27.17;;;16.27;;
63016;SDS011;50274;45.640;11.756;2024-01-25T06:02:38;27.15;;;16.17;;
63016;SDS011;50274;45.640;11.756;2024-01-25T06:05:04;27.88;;;15.65;;
63016;SDS011;50274;45.640;11.756;2024-01-25T06:07:30;27.63;;;14.73;;
63016;SDS011;50274;45.640;11.756;2024-01-25T06:09:56;27.83;;;15.57;;
63016;SDS011;50274;45.640;11.756;2024-01-25T06:12:22;31.90;;;15.98;;
63016;SDS011;50274;45.640;11.756;2024-01-25T06:14:48;24.73;;;14.60;;
63016;SDS011;50274;45.640;11.756;2024-01-25T06:17:14;26.63;;;14.23;;
63016;SDS011;50274;45.640;11.756;2024-01-25T06:19:39;29.40;;;16.02;;
63016;SDS011;50274;45.640;11.756;2024-01-25T06:22:05;28.08;;;15.73;;
63016;SDS011;50274;45.640;11.756;2024-01-25T06:24:31;24.13;;;14.30;;
63016;SDS011;50274;45.640;11.756;2024-01-25T06:26:57;29.23;;;15.75;;
63016;SDS011;50274;45.640;11.756;2024-01-25T06:29:23;29.42;;;15.70;;
63016;SDS011;50274;45.640;11.756;2024-01-25T06:31:49;30.03;;;15.67;;
63016;SDS011;50274;45.640;11.756;2024-01-25T06:34:14;34.92;;;19.63;;
63016;SDS011;50274;45.640;11.756;2024-01-25T06:36:40;40.80;;;19.88;;
63016;SDS011;50274;45.640;11.756;2024-01-25T06:39:06;35.53;;;19.60;;
63016;SDS011;50274;45.640;11.756;2024-01-25T06:41:32;43.00;;;20.58;;
63016;SDS011;50274;45.640;11.756;2024-01-25T06:44:01;39.05;;;20.70;;
63016;SDS011;50274;45.640;11.756;2024-01-25T06:46:27;38.27;;;20.83;;
63016;SDS011;50274;45.640;11.756;2024-01-25T06:48:52;34.97;;;19.35;;
63016;SDS011;50274;45.640;11.756;2024-01-25T06:51:18;39.88;;;20.35;;
63016;SDS011;50274;45.640;11.756;2024-01-25T06:53:44;36.08;;;19.73;;
63016;SDS011;50274;45.640;11.756;2024-01-25T06:56:10;39.60;;;19.88;;
63016;SDS011;50274;45.640;11.756;2024-01-25T06:58:36;29.35;;;17.05;;
63016;SDS011;50274;45.640;11.756;2024-01-25T07:01:02;35.60;;;18.07;;
63016;SDS011;50274;45.640;11.756;2024-01-25T07:03:29;34.38;;;19.20;;
63016;SDS011;50274;45.640;11.756;2024-01-25T07:05:55;31.50;;;18.48;;
63016;SDS011;50274;45.640;11.756;2024-01-25T07:08:21;32.93;;;17.57;;
63016;SDS011;50274;45.640;11.756;2024-01-25T07:10:49;37.92;;;20.13;;
63016;SDS011;50274;45.640;11.756;2024-01-25T07:13:15;38.85;;;20.15;;
63016;SDS011;50274;45.640;11.756;2024-01-25T07:15:41;39.97;;;20.70;;
63016;SDS011;50274;45.640;11.756;2024-01-25T07:18:07;43.15;;;21.40;;
63016;SDS011;50274;45.640;11.756;2024-01-25T07:20:33;40.47;;;22.48;;
63016;SDS011;50274;45.640;11.756;2024-01-25T07:23:00;37.35;;;20.20;;
63016;SDS011;50274;45.640;11.756;2024-01-25T07:25:26;36.15;;;19.52;;
63016;SDS011;50274;45.640;11.756;2024-01-25T07:27:52;39.33;;;21.73;;
63016;SDS011;50274;45.640;11.756;2024-01-25T07:30:18;48.47;;;21.67;;
63016;SDS011;50274;45.640;11.756;2024-01-25T07:32:44;40.65;;;21.67;;
63016;SDS011;50274;45.640;11.756;2024-01-25T07:35:11;38.90;;;21.20;;
63016;SDS011;50274;45.640;11.756;2024-01-25T07:37:38;36.33;;;20.90;;
63016;SDS011;50274;45.640;11.756;2024-01-25T07:40:10;37.93;;;22.13;;
63016;SDS011;50274;45.640;11.756;2024-01-25T07:42:37;39.65;;;22.30;;
63016;SDS011;50274;45.640;11.756;2024-01-25T07:45:03;35.75;;;21.85;;
63016;SDS011;50274;45.640;11.756;2024-01-25T07:47:29;44.85;;;22.95;;
63016;SDS011;50274;45.640;11.756;2024-01-25T07:49:55;49.13;;;27.73;;
63016;SDS011;50274;45.640;11.756;2024-01-25T07:52:21;45.13;;;25.98;;
63016;SDS011;50274;45.640;11.756;2024-01-25T07:54:47;45.65;;;26.95;;
63016;SDS011;50274;45.640;11.756;2024-01-25T07:57:12;46.70;;;26.83;;
63016;SDS011;50274;45.640;11.756;2024-01-25T07:59:38;46.47;;;25.77;;
63016;SDS011;50274;45.640;11.756;2024-01-25T08:02:04;49.03;;;26.25;;
63016;SDS011;50274;45.640;11.756;2024-01-25T08:04:30;45.80;;;25.37;;
63016;SDS011;50274;45.640;11.756;2024-01-25T08:06:56;47.75;;;27.23;;
63016;SDS011;50274;45.640;11.756;2024-01-25T08:09:21;47.40;;;28.00;;
63016;SDS011;50274;45.640;11.756;2024-01-25T08:11:48;45.55;;;25.40;;
63016;SDS011;50274;45.640;11.756;2024-01-25T08:14:14;47.55;;;25.60;;
63016;SDS011;50274;45.640;11.756;2024-01-25T08:16:40;44.03;;;26.10;;
63016;SDS011;50274;45.640;11.756;2024-01-25T08:19:06;45.80;;;24.93;;
63016;SDS011;50274;45.640;11.756;2024-01-25T08:21:32;49.30;;;28.67;;
63016;SDS011;50274;45.640;11.756;2024-01-25T08:24:00;50.50;;;27.67;;
63016;SDS011;50274;45.640;11.756;2024-01-25T08:26:27;50.88;;;27.88;;
63016;SDS011;50274;45.640;11.756;2024-01-25T08:28:53;49.78;;;28.58;;
63016;SDS011;50274;45.640;11.756;2024-01-25T08:31:19;54.15;;;29.13;;
63016;SDS011;50274;45.640;11.756;2024-01-25T08:33:44;49.57;;;28.03;;
63016;SDS011;50274;45.640;11.756;2024-01-25T08:36:13;49.20;;;28.80;;
63016;SDS011;50274;45.640;11.756;2024-01-25T08:38:42;52.78;;;28.92;;
63016;SDS011;50274;45.640;11.756;2024-01-25T08:41:08;47.35;;;27.17;;
63016;SDS011;50274;45.640;11.756;2024-01-25T08:43:36;49.20;;;26.40;;
63016;SDS011;50274;45.640;11.756;2024-01-25T08:46:02;49.42;;;26.40;;
63016;SDS011;50274;45.640;11.756;2024-01-25T08:48:28;44.72;;;26.70;;
63016;SDS011;50274;45.640;11.756;2024-01-25T08:50:54;46.72;;;25.35;;
63016;SDS011;50274;45.640;11.756;2024-01-25T08:53:20;45.03;;;25.23;;
63016;SDS011;50274;45.640;11.756;2024-01-25T08:55:48;44.38;;;25.38;;
63016;SDS011;50274;45.640;11.756;2024-01-25T08:58:13;43.25;;;25.60;;
63016;SDS011;50274;45.640;11.756;2024-01-25T09:00:39;38.93;;;22.87;;
63016;SDS011;50274;45.640;11.756;2024-01-25T09:03:05;44.13;;;23.95;;
63016;SDS011;50274;45.640;11.756;2024-01-25T09:05:31;40.45;;;22.65;;
63016;SDS011;50274;45.640;11.756;2024-01-25T09:07:59;40.45;;;24.10;;
63016;SDS011;50274;45.640;11.756;2024-01-25T09:10:25;41.57;;;24.70;;
63016;SDS011;50274;45.640;11.756;2024-01-25T09:12:51;40.95;;;25.00;;
63016;SDS011;50274;45.640;11.756;2024-01-25T09:15:17;46.07;;;25.37;;
63016;SDS011;50274;45.640;11.756;2024-01-25T09:17:43;40.73;;;24.27;;
63016;SDS011;50274;45.640;11.756;2024-01-25T09:20:10;44.08;;;25.88;;
63016;SDS011;50274;45.640;11.756;2024-01-25T09:22:36;42.90;;;26.58;;
63016;SDS011;50274;45.640;11.756;2024-01-25T09:25:02;43.97;;;26.15;;
63016;SDS011;50274;45.640;11.756;2024-01-25T09:27:29;41.75;;;25.23;;
63016;SDS011;50274;45.640;11.756;2024-01-25T09:29:54;41.53;;;25.37;;
63016;SDS011;50274;45.640;11.756;2024-01-25T09:32:20;42.92;;;25.83;;
63016;SDS011;50274;45.640;11.756;2024-01-25T09:34:46;45.03;;;26.33;;
63016;SDS011;50274;45.640;11.756;2024-01-25T09:37:12;41.08;;;25.95;;
63016;SDS011;50274;45.640;11.756;2024-01-25T09:39:39;40.00;;;24.85;;
63016;SDS011;50274;45.640;11.756;2024-01-25T09:42:05;43.00;;;25.47;;
63016;SDS011;50274;45.640;11.756;2024-01-25T09:44:32;40.22;;;24.60;;
63016;SDS011;50274;45.640;11.756;2024-01-25T09:46:58;37.70;;;24.08;;
63016;SDS011;50274;45.640;11.756;2024-01-25T09:49:28;40.85;;;24.15;;
63016;SDS011;50274;45.640;11.756;2024-01-25T09:51:53;37.10;;;24.00;;
63016;SDS011;50274;45.640;11.756;2024-01-25T09:54:20;39.33;;;25.48;;
63016;SDS011;50274;45.640;11.756;2024-01-25T09:56:47;37.90;;;24.55;;
63016;SDS011;50274;45.640;11.756;2024-01-25T09:59:16;35.67;;;24.42;;
63016;SDS011;50274;45.640;11.756;2024-01-25T10:01:42;39.08;;;24.95;;
63016;SDS011;50274;45.640;11.756;2024-01-25T10:04:09;36.77;;;24.70;;
63016;SDS011;50274;45.640;11.756;2024-01-25T10:06:37;42.65;;;25.85;;
63016;SDS011;50274;45.640;11.756;2024-01-25T10:09:04;36.47;;;23.10;;
63016;SDS011;50274;45.640;11.756;2024-01-25T10:11:30;39.28;;;25.38;;
63016;SDS011;50274;45.640;11.756;2024-01-25T10:14:00;39.27;;;24.93;;
63016;SDS011;50274;45.640;11.756;2024-01-25T10:16:26;37.55;;;24.38;;
63016;SDS011;50274;45.640;11.756;2024-01-25T10:18:52;34.25;;;24.15;;
63016;SDS011;50274;45.640;11.756;2024-01-25T10:21:18;35.47;;;23.33;;
63016;SDS011;50274;45.640;11.756;2024-01-25T10:23:45;34.53;;;24.13;;
63016;SDS011;50274;45.640;11.756;2024-01-25T10:26:12;31.95;;;21.13;;
63016;SDS011;50274;45.640;11.756;2024-01-25T10:28:38;33.85;;;22.38;;
63016;SDS011;50274;45.640;11.756;2024-01-25T10:31:04;36.80;;;23.03;;
63016;SDS011;50274;45.640;11.756;2024-01-25T10:33:31;35.13;;;22.80;;
63016;SDS011;50274;45.640;11.756;2024-01-25T10:35:57;34.95;;;22.75;;
63016;SDS011;50274;45.640;11.756;2024-01-25T10:38:35;32.28;;;21.73;;
63016;SDS011;50274;45.640;11.756;2024-01-25T10:41:03;33.50;;;22.38;;
63016;SDS011;50274;45.640;11.756;2024-01-25T10:43:30;31.40;;;20.97;;
63016;SDS011;50274;45.640;11.756;2024-01-25T10:45:57;35.33;;;22.30;;
63016;SDS011;50274;45.640;11.756;2024-01-25T10:48:26;32.38;;;21.95;;
63016;SDS011;50274;45.640;11.756;2024-01-25T10:50:55;32.58;;;20.92;;
63016;SDS011;50274;45.640;11.756;2024-01-25T10:53:24;33.80;;;21.48;;
63016;SDS011;50274;45.640;11.756;2024-01-25T10:55:51;29.57;;;21.17;;
63016;SDS011;50274;45.640;11.756;2024-01-25T10:58:17;33.25;;;21.73;;
63016;SDS011;50274;45.640;11.756;2024-01-25T11:00:55;33.00;;;21.90;;
63016;SDS011;50274;45.640;11.756;2024-01-25T11:03:27;34.10;;;21.40;;
63016;SDS011;50274;45.640;11.756;2024-01-25T11:06:09;32.47;;;20.53;;
63016;SDS011;50274;45.640;11.756;2024-01-25T11:08:39;29.48;;;20.33;;
63016;SDS011;50274;45.640;11.756;2024-01-25T11:11:09;29.60;;;19.52;;
63016;SDS011;50274;45.640;11.756;2024-01-25T11:13:40;30.02;;;20.45;;
63016;SDS011;50274;45.640;11.756;2024-01-25T11:16:14;26.13;;;18.42;;
63016;SDS011;50274;45.640;11.756;2024-01-25T11:18:50;26.37;;;18.10;;
63016;SDS011;50274;45.640;11.756;2024-01-25T11:21:28;28.88;;;20.00;;
63016;SDS011;50274;45.640;11.756;2024-01-25T11:24:03;29.20;;;19.77;;
63016;SDS011;50274;45.640;11.756;2024-01-25T11:26:31;25.48;;;17.48;;
63016;SDS011;50274;45.640;11.756;2024-01-25T11:28:57;24.27;;;17.38;;
63016;SDS011;50274;45.640;11.756;2024-01-25T11:31:25;23.10;;;15.90;;
63016;SDS011;50274;45.640;11.756;2024-01-25T11:33:53;23.48;;;15.20;;
63016;SDS011;50274;45.640;11.756;2024-01-25T11:36:25;22.30;;;14.07;;
63016;SDS011;50274;45.640;11.756;2024-01-25T11:38:52;21.95;;;13.50;;
63016;SDS011;50274;45.640;11.756;2024-01-25T11:41:18;22.97;;;12.73;;
63016;SDS011;50274;45.640;11.756;2024-01-25T11:43:44;19.33;;;12.70;;
63016;SDS011;50274;45.640;11.756;2024-01-25T11:46:10;17.75;;;11.85;;
63016;SDS011;50274;45.640;11.756;2024-01-25T11:48:40;19.58;;;11.85;;
63016;SDS011;50274;45.640;11.756;2024-01-25T11:51:08;18.77;;;11.77;;
63016;SDS011;50274;45.640;11.756;2024-01-25T11:53:36;20.63;;;12.70;;
63016;SDS011;50274;45.640;11.756;2024-01-25T11:56:02;18.30;;;11.93;;
63016;SDS011;50274;45.640;11.756;2024-01-25T11:58:31;17.88;;;12.15;;
63016;SDS011;50274;45.640;11.756;2024-01-25T12:00:57;17.27;;;12.65;;
63016;SDS011;50274;45.640;11.756;2024-01-25T12:03:24;15.95;;;11.25;;
63016;SDS011;50274;45.640;11.756;2024-01-25T12:05:52;17.07;;;11.97;;
63016;SDS011;50274;45.640;11.756;2024-01-25T12:08:19;18.27;;;12.25;;
63016;SDS011;50274;45.640;11.756;2024-01-25T12:10:45;15.45;;;10.75;;
63016;SDS011;50274;45.640;11.756;2024-01-25T12:13:10;20.80;;;12.43;;
63016;SDS011;50274;45.640;11.756;2024-01-25T12:15:36;19.90;;;13.00;;
63016;SDS011;50274;45.640;11.756;2024-01-25T12:18:02;19.83;;;11.82;;
63016;SDS011;50274;45.640;11.756;2024-01-25T12:20:30;21.50;;;12.33;;
63016;SDS011;50274;45.640;11.756;2024-01-25T12:22:58;21.05;;;13.85;;
63016;SDS011;50274;45.640;11.756;2024-01-25T12:25:24;21.30;;;13.82;;
63016;SDS011;50274;45.640;11.756;2024-01-25T12:27:50;21.98;;;14.07;;
63016;SDS011;50274;45.640;11.756;2024-01-25T12:30:18;21.42;;;13.30;;
63016;SDS011;50274;45.640;11.756;2024-01-25T12:32:44;20.63;;;14.17;;
63016;SDS011;50274;45.640;11.756;2024-01-25T12:35:10;22.23;;;14.60;;
63016;SDS011;50274;45.640;11.756;2024-01-25T12:37:36;23.30;;;15.18;;
63016;SDS011;50274;45.640;11.756;2024-01-25T12:40:03;22.97;;;14.93;;
63016;SDS011;50274;45.640;11.756;2024-01-25T12:42:29;20.40;;;14.15;;
63016;SDS011;50274;45.640;11.756;2024-01-25T12:44:55;22.17;;;14.40;;
63016;SDS011;50274;45.640;11.756;2024-01-25T12:47:21;17.67;;;13.57;;
63016;SDS011;50274;45.640;11.756;2024-01-25T12:49:47;20.40;;;12.55;;
63016;SDS011;50274;45.640;11.756;2024-01-25T12:52:14;20.45;;;13.60;;
63016;SDS011;50274;45.640;11.756;2024-01-25T12:54:40;20.00;;;12.97;;
63016;SDS011;50274;45.640;11.756;2024-01-25T12:57:07;22.58;;;14.18;;
63016;SDS011;50274;45.640;11.756;2024-01-25T12:59:33;22.98;;;16.70;;
63016;SDS011;50274;45.640;11.756;2024-01-25T13:02:00;21.80;;;14.85;;
63016;SDS011;50274;45.640;11.756;2024-01-25T13:04:25;22.70;;;14.80;;
63016;SDS011;50274;45.640;11.756;2024-01-25T13:06:52;25.73;;;15.98;;
63016;SDS011;50274;45.640;11.756;2024-01-25T13:09:22;23.30;;;15.18;;
63016;SDS011;50274;45.640;11.756;2024-01-25T13:11:48;22.42;;;15.23;;
63016;SDS011;50274;45.640;11.756;2024-01-25T13:14:16;23.27;;;16.00;;
63016;SDS011;50274;45.640;11.756;2024-01-25T13:16:42;24.57;;;15.43;;
63016;SDS011;50274;45.640;11.756;2024-01-25T13:19:09;21.40;;;15.45;;
63016;SDS011;50274;45.640;11.756;2024-01-25T13:21:58;24.80;;;16.23;;
63016;SDS011;50274;45.640;11.756;2024-01-25T13:24:24;23.63;;;15.43;;
63016;SDS011;50274;45.640;11.756;2024-01-25T13:26:50;21.07;;;14.77;;
63016;SDS011;50274;45.640;11.756;2024-01-25T13:29:16;22.63;;;14.95;;
63016;SDS011;50274;45.640;11.756;2024-01-25T13:31:44;21.75;;;14.57;;
63016;SDS011;50274;45.640;11.756;2024-01-25T13:34:10;20.02;;;14.10;;
63016;SDS011;50274;45.640;11.756;2024-01-25T13:36:37;20.25;;;13.70;;
63016;SDS011;50274;45.640;11.756;2024-01-25T13:39:04;20.87;;;14.30;;
63016;SDS011;50274;45.640;11.756;2024-01-25T13:41:42;21.63;;;14.10;;
63016;SDS011;50274;45.640;11.756;2024-01-25T13:44:11;22.83;;;14.98;;
63016;SDS011;50274;45.640;11.756;2024-01-25T13:46:38;20.42;;;14.35;;
63016;SDS011;50274;45.640;11.756;2024-01-25T13:49:04;24.10;;;15.77;;
63016;SDS011;50274;45.640;11.756;2024-01-25T13:51:30;20.93;;;13.37;;
63016;SDS011;50274;45.640;11.756;2024-01-25T13:53:56;20.45;;;13.48;;
63016;SDS011;50274;45.640;11.756;2024-01-25T13:56:21;20.67;;;13.07;;
63016;SDS011;50274;45.640;11.756;2024-01-25T13:58:48;18.13;;;12.35;;
63016;SDS011;50274;45.640;11.756;2024-01-25T14:01:14;19.02;;;11.75;;
63016;SDS011;50274;45.640;11.756;2024-01-25T14:03:41;18.90;;;13.00;;
63016;SDS011;50274;45.640;11.756;2024-01-25T14:06:07;18.33;;;12.38;;